sensor_id;sensor_type;location;lat;lon;timestamp;temperature;humidity
70336;SHT31;57756;47.408;18.940;2022-12-20T00:02:01;-1.42;94.77
70336;SHT31;57756;47.408;18.940;2022-12-20T00:04:26;-1.38;95.12
70336;SHT31;57756;47.408;18.940;2022-12-20T00:06:52;-1.41;95.12
70336;SHT31;57756;47.408;18.940;2022-12-20T00:09:17;-1.37;95.02
70336;SHT31;57756;47.408;18.940;2022-12-20T00:11:43;-1.28;94.57
70336;SHT31;57756;47.408;18.940;2022-12-20T00:14:09;-1.30;94.63
70336;SHT31;57756;47.408;18.940;2022-12-20T00:16:34;-1.25;94.67
70336;SHT31;57756;47.408;18.940;2022-12-20T00:19:03;-1.18;94.43
70336;SHT31;57756;47.408;18.940;2022-12-20T00:21:30;-1.15;93.96
70336;SHT31;57756;47.408;18.940;2022-12-20T00:23:56;-1.13;94.15
70336;SHT31;57756;47.408;18.940;2022-12-20T00:26:24;-1.18;94.07
70336;SHT31;57756;47.408;18.940;2022-12-20T00:28:50;-1.20;94.19
70336;SHT31;57756;47.408;18.940;2022-12-20T00:31:17;-1.15;94.46
70336;SHT31;57756;47.408;18.940;2022-12-20T00:33:45;-1.11;94.09
70336;SHT31;57756;47.408;18.940;2022-12-20T00:36:11;-0.99;93.49
70336;SHT31;57756;47.408;18.940;2022-12-20T00:38:37;-0.99;93.29
70336;SHT31;57756;47.408;18.940;2022-12-20T00:41:14;-0.93;93.37
70336;SHT31;57756;47.408;18.940;2022-12-20T00:43:40;-1.03;93.62
70336;SHT31;57756;47.408;18.940;2022-12-20T00:46:08;-1.01;93.56
70336;SHT31;57756;47.408;18.940;2022-12-20T00:48:35;-1.01;93.80
70336;SHT31;57756;47.408;18.940;2022-12-20T00:51:15;-0.96;93.37
70336;SHT31;57756;47.408;18.940;2022-12-20T00:53:41;-0.96;93.47
70336;SHT31;57756;47.408;18.940;2022-12-20T00:56:08;-1.04;93.41
70336;SHT31;57756;47.408;18.940;2022-12-20T00:58:36;-0.99;93.15
70336;SHT31;57756;47.408;18.940;2022-12-20T01:01:03;-1.03;93.52
70336;SHT31;57756;47.408;18.940;2022-12-20T01:03:28;-1.01;93.40
70336;SHT31;57756;47.408;18.940;2022-12-20T01:05:59;-0.97;93.13
70336;SHT31;57756;47.408;18.940;2022-12-20T01:08:27;-1.01;93.04
70336;SHT31;57756;47.408;18.940;2022-12-20T01:11:04;-0.99;92.93
70336;SHT31;57756;47.408;18.940;2022-12-20T01:13:32;-1.06;93.24
70336;SHT31;57756;47.408;18.940;2022-12-20T01:16:13;-1.11;93.65
70336;SHT31;57756;47.408;18.940;2022-12-20T01:18:39;-1.07;93.18
70336;SHT31;57756;47.408;18.940;2022-12-20T01:21:07;-1.11;93.55
70336;SHT31;57756;47.408;18.940;2022-12-20T01:23:34;-1.03;93.47
70336;SHT31;57756;47.408;18.940;2022-12-20T01:26:01;-1.01;93.09
70336;SHT31;57756;47.408;18.940;2022-12-20T01:28:29;-1.06;93.26
70336;SHT31;57756;47.408;18.940;2022-12-20T01:30:55;-1.01;93.05
70336;SHT31;57756;47.408;18.940;2022-12-20T01:33:21;-1.10;93.20
70336;SHT31;57756;47.408;18.940;2022-12-20T01:36:07;-1.11;93.31
70336;SHT31;57756;47.408;18.940;2022-12-20T01:38:33;-1.03;93.09
70336;SHT31;57756;47.408;18.940;2022-12-20T01:41:00;-1.06;93.17
70336;SHT31;57756;47.408;18.940;2022-12-20T01:46:15;-1.03;92.97
70336;SHT31;57756;47.408;18.940;2022-12-20T01:48:43;-1.10;93.26
70336;SHT31;57756;47.408;18.940;2022-12-20T01:51:09;-1.07;93.20
70336;SHT31;57756;47.408;18.940;2022-12-20T01:53:36;-1.13;93.38
70336;SHT31;57756;47.408;18.940;2022-12-20T01:56:04;-1.08;93.01
70336;SHT31;57756;47.408;18.940;2022-12-20T01:58:31;-1.08;93.26
70336;SHT31;57756;47.408;18.940;2022-12-20T02:00:58;-1.13;93.49
70336;SHT31;57756;47.408;18.940;2022-12-20T02:03:24;-1.13;93.32
70336;SHT31;57756;47.408;18.940;2022-12-20T02:05:49;-1.14;93.00
70336;SHT31;57756;47.408;18.940;2022-12-20T02:08:17;-1.21;93.39
70336;SHT31;57756;47.408;18.940;2022-12-20T02:16:43;-1.14;93.30
70336;SHT31;57756;47.408;18.940;2022-12-20T02:22:25;-1.30;93.82
70336;SHT31;57756;47.408;18.940;2022-12-20T02:30:22;-1.35;94.06
70336;SHT31;57756;47.408;18.940;2022-12-20T02:32:59;-1.41;94.06
70336;SHT31;57756;47.408;18.940;2022-12-20T02:35:28;-1.42;94.25
70336;SHT31;57756;47.408;18.940;2022-12-20T02:37:56;-1.45;94.24
70336;SHT31;57756;47.408;18.940;2022-12-20T02:40:26;-1.42;94.18
70336;SHT31;57756;47.408;18.940;2022-12-20T02:42:58;-1.45;94.19
70336;SHT31;57756;47.408;18.940;2022-12-20T02:45:28;-1.41;94.26
70336;SHT31;57756;47.408;18.940;2022-12-20T02:48:09;-1.48;94.60
70336;SHT31;57756;47.408;18.940;2022-12-20T02:50:45;-1.42;94.22
70336;SHT31;57756;47.408;18.940;2022-12-20T02:53:13;-1.51;94.56
70336;SHT31;57756;47.408;18.940;2022-12-20T02:55:57;-1.52;94.71
70336;SHT31;57756;47.408;18.940;2022-12-20T02:58:31;-1.47;94.47
70336;SHT31;57756;47.408;18.940;2022-12-20T03:01:01;-1.44;94.50
70336;SHT31;57756;47.408;18.940;2022-12-20T03:03:31;-1.44;94.34
70336;SHT31;57756;47.408;18.940;2022-12-20T03:05:57;-1.42;94.60
70336;SHT31;57756;47.408;18.940;2022-12-20T03:08:23;-1.42;94.46
70336;SHT31;57756;47.408;18.940;2022-12-20T03:10:51;-1.42;94.47
70336;SHT31;57756;47.408;18.940;2022-12-20T03:13:17;-1.34;94.28
70336;SHT31;57756;47.408;18.940;2022-12-20T03:15:42;-1.25;93.93
70336;SHT31;57756;47.408;18.940;2022-12-20T03:18:08;-1.30;93.86
70336;SHT31;57756;47.408;18.940;2022-12-20T03:20:34;-1.33;94.12
70336;SHT31;57756;47.408;18.940;2022-12-20T03:23:00;-1.42;94.52
70336;SHT31;57756;47.408;18.940;2022-12-20T03:25:25;-1.38;94.31
70336;SHT31;57756;47.408;18.940;2022-12-20T03:27:51;-1.37;94.14
70336;SHT31;57756;47.408;18.940;2022-12-20T03:30:16;-1.41;94.22
70336;SHT31;57756;47.408;18.940;2022-12-20T03:32:42;-1.48;94.62
70336;SHT31;57756;47.408;18.940;2022-12-20T03:35:08;-1.42;94.43
70336;SHT31;57756;47.408;18.940;2022-12-20T03:37:33;-1.42;94.35
70336;SHT31;57756;47.408;18.940;2022-12-20T03:39:59;-1.47;94.33
70336;SHT31;57756;47.408;18.940;2022-12-20T03:42:24;-1.44;94.35
70336;SHT31;57756;47.408;18.940;2022-12-20T03:44:50;-1.54;94.64
70336;SHT31;57756;47.408;18.940;2022-12-20T03:47:16;-1.41;94.32
70336;SHT31;57756;47.408;18.940;2022-12-20T03:49:41;-1.40;94.09
70336;SHT31;57756;47.408;18.940;2022-12-20T03:52:06;-1.45;94.14
70336;SHT31;57756;47.408;18.940;2022-12-20T03:54:32;-1.45;94.35
70336;SHT31;57756;47.408;18.940;2022-12-20T03:56:58;-1.42;94.06
70336;SHT31;57756;47.408;18.940;2022-12-20T03:59:23;-1.51;94.32
70336;SHT31;57756;47.408;18.940;2022-12-20T04:01:49;-1.54;94.63
70336;SHT31;57756;47.408;18.940;2022-12-20T04:04:14;-1.54;94.75
70336;SHT31;57756;47.408;18.940;2022-12-20T04:06:41;-1.55;94.61
70336;SHT31;57756;47.408;18.940;2022-12-20T04:09:06;-1.58;94.61
70336;SHT31;57756;47.408;18.940;2022-12-20T04:11:32;-1.61;94.81
70336;SHT31;57756;47.408;18.940;2022-12-20T04:13:57;-1.54;94.64
70336;SHT31;57756;47.408;18.940;2022-12-20T04:16:26;-1.59;94.72
70336;SHT31;57756;47.408;18.940;2022-12-20T04:18:51;-1.56;94.65
70336;SHT31;57756;47.408;18.940;2022-12-20T04:21:24;-1.58;94.71
70336;SHT31;57756;47.408;18.940;2022-12-20T04:23:50;-1.59;94.75
70336;SHT31;57756;47.408;18.940;2022-12-20T04:26:16;-1.63;94.92
70336;SHT31;57756;47.408;18.940;2022-12-20T04:28:42;-1.56;94.73
70336;SHT31;57756;47.408;18.940;2022-12-20T04:31:08;-1.62;94.74
70336;SHT31;57756;47.408;18.940;2022-12-20T04:33:33;-1.63;94.91
70336;SHT31;57756;47.408;18.940;2022-12-20T04:35:59;-1.63;94.97
70336;SHT31;57756;47.408;18.940;2022-12-20T04:38:25;-1.59;94.88
70336;SHT31;57756;47.408;18.940;2022-12-20T04:40:53;-1.61;95.27
70336;SHT31;57756;47.408;18.940;2022-12-20T04:43:19;-1.48;94.66
70336;SHT31;57756;47.408;18.940;2022-12-20T04:45:50;-1.50;94.68
70336;SHT31;57756;47.408;18.940;2022-12-20T04:48:16;-1.47;94.70
70336;SHT31;57756;47.408;18.940;2022-12-20T04:50:42;-1.54;94.99
70336;SHT31;57756;47.408;18.940;2022-12-20T04:53:10;-1.51;94.89
70336;SHT31;57756;47.408;18.940;2022-12-20T04:55:54;-1.51;94.82
70336;SHT31;57756;47.408;18.940;2022-12-20T04:58:20;-1.52;95.03
70336;SHT31;57756;47.408;18.940;2022-12-20T05:00:45;-1.51;94.96
70336;SHT31;57756;47.408;18.940;2022-12-20T05:03:11;-1.58;95.07
70336;SHT31;57756;47.408;18.940;2022-12-20T05:05:36;-1.58;95.19
70336;SHT31;57756;47.408;18.940;2022-12-20T05:08:02;-1.54;95.29
70336;SHT31;57756;47.408;18.940;2022-12-20T05:10:28;-1.55;95.27
70336;SHT31;57756;47.408;18.940;2022-12-20T05:12:53;-1.48;95.00
70336;SHT31;57756;47.408;18.940;2022-12-20T05:15:19;-1.50;94.78
70336;SHT31;57756;47.408;18.940;2022-12-20T05:17:45;-1.51;94.96
70336;SHT31;57756;47.408;18.940;2022-12-20T05:20:11;-1.47;94.91
70336;SHT31;57756;47.408;18.940;2022-12-20T05:22:36;-1.51;94.71
70336;SHT31;57756;47.408;18.940;2022-12-20T05:25:21;-1.47;94.67
70336;SHT31;57756;47.408;18.940;2022-12-20T05:28:05;-1.52;94.97
70336;SHT31;57756;47.408;18.940;2022-12-20T05:30:30;-1.52;95.00
70336;SHT31;57756;47.408;18.940;2022-12-20T05:32:55;-1.51;95.14
70336;SHT31;57756;47.408;18.940;2022-12-20T05:35:21;-1.52;95.01
70336;SHT31;57756;47.408;18.940;2022-12-20T05:37:47;-1.54;95.07
70336;SHT31;57756;47.408;18.940;2022-12-20T05:40:12;-1.55;95.24
70336;SHT31;57756;47.408;18.940;2022-12-20T05:42:38;-1.52;94.82
70336;SHT31;57756;47.408;18.940;2022-12-20T05:45:04;-1.52;94.80
70336;SHT31;57756;47.408;18.940;2022-12-20T05:47:30;-1.48;94.96
70336;SHT31;57756;47.408;18.940;2022-12-20T05:49:58;-1.50;94.83
70336;SHT31;57756;47.408;18.940;2022-12-20T05:52:24;-1.54;95.04
70336;SHT31;57756;47.408;18.940;2022-12-20T05:54:50;-1.55;95.16
70336;SHT31;57756;47.408;18.940;2022-12-20T05:57:15;-1.52;94.98
70336;SHT31;57756;47.408;18.940;2022-12-20T05:59:41;-1.56;95.04
70336;SHT31;57756;47.408;18.940;2022-12-20T06:02:06;-1.48;94.58
70336;SHT31;57756;47.408;18.940;2022-12-20T06:04:32;-1.50;94.73
70336;SHT31;57756;47.408;18.940;2022-12-20T06:06:57;-1.54;94.92
70336;SHT31;57756;47.408;18.940;2022-12-20T06:09:26;-1.50;94.56
70336;SHT31;57756;47.408;18.940;2022-12-20T06:11:51;-1.52;94.50
70336;SHT31;57756;47.408;18.940;2022-12-20T06:14:17;-1.52;94.65
70336;SHT31;57756;47.408;18.940;2022-12-20T06:16:43;-1.58;94.65
70336;SHT31;57756;47.408;18.940;2022-12-20T06:19:08;-1.61;94.77
70336;SHT31;57756;47.408;18.940;2022-12-20T06:21:34;-1.58;94.57
70336;SHT31;57756;47.408;18.940;2022-12-20T06:23:59;-1.61;94.90
70336;SHT31;57756;47.408;18.940;2022-12-20T06:26:26;-1.63;94.83
70336;SHT31;57756;47.408;18.940;2022-12-20T06:28:52;-1.71;95.02
70336;SHT31;57756;47.408;18.940;2022-12-20T06:31:19;-1.66;95.02
70336;SHT31;57756;47.408;18.940;2022-12-20T06:33:44;-1.71;95.15
70336;SHT31;57756;47.408;18.940;2022-12-20T06:36:10;-1.68;95.20
70336;SHT31;57756;47.408;18.940;2022-12-20T06:38:35;-1.72;95.31
70336;SHT31;57756;47.408;18.940;2022-12-20T06:41:01;-1.72;95.24
70336;SHT31;57756;47.408;18.940;2022-12-20T06:43:27;-1.78;95.48
70336;SHT31;57756;47.408;18.940;2022-12-20T06:45:53;-1.69;95.15
70336;SHT31;57756;47.408;18.940;2022-12-20T06:48:18;-1.68;95.04
70336;SHT31;57756;47.408;18.940;2022-12-20T06:50:47;-1.63;94.95
70336;SHT31;57756;47.408;18.940;2022-12-20T06:53:13;-1.63;94.70
70336;SHT31;57756;47.408;18.940;2022-12-20T06:55:39;-1.62;94.71
70336;SHT31;57756;47.408;18.940;2022-12-20T06:58:04;-1.58;94.50
70336;SHT31;57756;47.408;18.940;2022-12-20T07:00:30;-1.63;94.99
70336;SHT31;57756;47.408;18.940;2022-12-20T07:02:56;-1.62;95.03
70336;SHT31;57756;47.408;18.940;2022-12-20T07:05:21;-1.55;94.67
70336;SHT31;57756;47.408;18.940;2022-12-20T07:07:46;-1.56;94.68
70336;SHT31;57756;47.408;18.940;2022-12-20T07:10:12;-1.47;94.44
70336;SHT31;57756;47.408;18.940;2022-12-20T07:12:38;-1.52;94.59
70336;SHT31;57756;47.408;18.940;2022-12-20T07:15:04;-1.50;94.54
70336;SHT31;57756;47.408;18.940;2022-12-20T07:17:29;-1.44;94.51
70336;SHT31;57756;47.408;18.940;2022-12-20T07:19:55;-1.40;94.34
70336;SHT31;57756;47.408;18.940;2022-12-20T07:22:21;-1.33;94.03
70336;SHT31;57756;47.408;18.940;2022-12-20T07:24:46;-1.20;93.40
70336;SHT31;57756;47.408;18.940;2022-12-20T07:27:12;-1.15;93.61
70336;SHT31;57756;47.408;18.940;2022-12-20T07:29:38;-1.10;93.41
70336;SHT31;57756;47.408;18.940;2022-12-20T07:32:06;-1.04;92.88
70336;SHT31;57756;47.408;18.940;2022-12-20T07:34:32;-0.97;92.45
70336;SHT31;57756;47.408;18.940;2022-12-20T07:36:57;-0.89;92.27
70336;SHT31;57756;47.408;18.940;2022-12-20T07:39:23;-0.92;92.52
70336;SHT31;57756;47.408;18.940;2022-12-20T07:41:52;-0.90;92.34
70336;SHT31;57756;47.408;18.940;2022-12-20T07:44:18;-0.95;92.57
70336;SHT31;57756;47.408;18.940;2022-12-20T07:46:43;-0.90;92.64
70336;SHT31;57756;47.408;18.940;2022-12-20T07:49:09;-0.77;92.19
70336;SHT31;57756;47.408;18.940;2022-12-20T07:51:37;-0.73;91.33
70336;SHT31;57756;47.408;18.940;2022-12-20T07:54:09;-0.64;91.24
70336;SHT31;57756;47.408;18.940;2022-12-20T07:56:39;-0.62;91.44
70336;SHT31;57756;47.408;18.940;2022-12-20T07:59:05;-0.62;91.23
70336;SHT31;57756;47.408;18.940;2022-12-20T08:01:31;-0.55;90.98
70336;SHT31;57756;47.408;18.940;2022-12-20T08:04:07;-0.59;91.12
70336;SHT31;57756;47.408;18.940;2022-12-20T08:06:36;-0.55;90.94
70336;SHT31;57756;47.408;18.940;2022-12-20T08:09:04;-0.42;90.54
70336;SHT31;57756;47.408;18.940;2022-12-20T08:11:32;-0.35;90.22
70336;SHT31;57756;47.408;18.940;2022-12-20T08:13:59;-0.29;90.10
70336;SHT31;57756;47.408;18.940;2022-12-20T08:16:25;-0.27;89.51
70336;SHT31;57756;47.408;18.940;2022-12-20T08:18:51;-0.31;89.99
70336;SHT31;57756;47.408;18.940;2022-12-20T08:21:16;-0.31;90.10
70336;SHT31;57756;47.408;18.940;2022-12-20T08:23:43;-0.37;90.05
70336;SHT31;57756;47.408;18.940;2022-12-20T08:26:09;-0.34;89.84
70336;SHT31;57756;47.408;18.940;2022-12-20T08:28:34;-0.24;89.53
70336;SHT31;57756;47.408;18.940;2022-12-20T08:31:02;-0.21;89.88
70336;SHT31;57756;47.408;18.940;2022-12-20T08:33:27;-0.20;89.26
70336;SHT31;57756;47.408;18.940;2022-12-20T08:35:58;-0.07;89.11
70336;SHT31;57756;47.408;18.940;2022-12-20T08:38:26;0.04;88.95
70336;SHT31;57756;47.408;18.940;2022-12-20T08:40:51;0.27;87.95
70336;SHT31;57756;47.408;18.940;2022-12-20T08:43:17;0.54;87.11
70336;SHT31;57756;47.408;18.940;2022-12-20T08:45:42;0.77;86.30
70336;SHT31;57756;47.408;18.940;2022-12-20T08:48:08;0.75;85.93
70336;SHT31;57756;47.408;18.940;2022-12-20T08:50:33;0.89;85.59
70336;SHT31;57756;47.408;18.940;2022-12-20T08:52:59;0.93;85.27
70336;SHT31;57756;47.408;18.940;2022-12-20T08:55:24;1.06;84.85
70336;SHT31;57756;47.408;18.940;2022-12-20T08:57:50;0.99;84.64
70336;SHT31;57756;47.408;18.940;2022-12-20T09:00:15;1.19;84.62
70336;SHT31;57756;47.408;18.940;2022-12-20T09:02:41;1.56;84.83
70336;SHT31;57756;47.408;18.940;2022-12-20T09:05:07;1.58;83.92
70336;SHT31;57756;47.408;18.940;2022-12-20T09:07:32;1.65;83.61
70336;SHT31;57756;47.408;18.940;2022-12-20T09:09:58;1.68;83.09
70336;SHT31;57756;47.408;18.940;2022-12-20T09:12:23;1.73;82.62
70336;SHT31;57756;47.408;18.940;2022-12-20T09:14:49;1.98;82.37
70336;SHT31;57756;47.408;18.940;2022-12-20T09:17:14;1.92;81.83
70336;SHT31;57756;47.408;18.940;2022-12-20T09:19:40;2.06;81.99
70336;SHT31;57756;47.408;18.940;2022-12-20T09:22:05;1.93;81.93
70336;SHT31;57756;47.408;18.940;2022-12-20T09:24:31;2.20;81.34
70336;SHT31;57756;47.408;18.940;2022-12-20T09:26:56;2.30;80.91
70336;SHT31;57756;47.408;18.940;2022-12-20T09:29:22;2.51;81.12
70336;SHT31;57756;47.408;18.940;2022-12-20T09:31:48;2.65;80.45
70336;SHT31;57756;47.408;18.940;2022-12-20T09:34:14;2.45;79.69
70336;SHT31;57756;47.408;18.940;2022-12-20T09:36:39;2.36;79.79
70336;SHT31;57756;47.408;18.940;2022-12-20T09:39:05;2.38;79.60
70336;SHT31;57756;47.408;18.940;2022-12-20T09:41:39;2.26;79.97
70336;SHT31;57756;47.408;18.940;2022-12-20T09:44:16;2.38;80.01
70336;SHT31;57756;47.408;18.940;2022-12-20T09:46:43;2.24;79.87
70336;SHT31;57756;47.408;18.940;2022-12-20T09:49:17;2.33;79.90
70336;SHT31;57756;47.408;18.940;2022-12-20T09:54:59;2.72;79.45
70336;SHT31;57756;47.408;18.940;2022-12-20T09:58:01;2.52;78.97
70336;SHT31;57756;47.408;18.940;2022-12-20T10:00:34;2.64;79.59
70336;SHT31;57756;47.408;18.940;2022-12-20T10:03:03;2.44;79.26
70336;SHT31;57756;47.408;18.940;2022-12-20T10:05:38;2.41;79.39
70336;SHT31;57756;47.408;18.940;2022-12-20T10:08:41;2.40;79.52
70336;SHT31;57756;47.408;18.940;2022-12-20T10:14:49;2.34;80.04
70336;SHT31;57756;47.408;18.940;2022-12-20T10:18:28;2.44;79.97
70336;SHT31;57756;47.408;18.940;2022-12-20T10:20:49;2.37;80.02
70336;SHT31;57756;47.408;18.940;2022-12-20T10:25:54;2.52;80.34
70336;SHT31;57756;47.408;18.940;2022-12-20T10:28:29;2.85;79.17
70336;SHT31;57756;47.408;18.940;2022-12-20T10:31:20;3.15;79.36
70336;SHT31;57756;47.408;18.940;2022-12-20T10:33:47;3.17;77.42
70336;SHT31;57756;47.408;18.940;2022-12-20T10:36:28;3.20;77.05
70336;SHT31;57756;47.408;18.940;2022-12-20T10:38:59;3.40;77.15
70336;SHT31;57756;47.408;18.940;2022-12-20T10:41:27;3.60;76.55
70336;SHT31;57756;47.408;18.940;2022-12-20T10:44:02;3.60;76.23
70336;SHT31;57756;47.408;18.940;2022-12-20T10:46:40;3.64;76.54
70336;SHT31;57756;47.408;18.940;2022-12-20T10:49:26;3.67;76.73
70336;SHT31;57756;47.408;18.940;2022-12-20T10:51:55;4.06;76.82
70336;SHT31;57756;47.408;18.940;2022-12-20T10:54:23;3.91;74.94
70336;SHT31;57756;47.408;18.940;2022-12-20T10:56:58;3.89;75.68
70336;SHT31;57756;47.408;18.940;2022-12-20T10:59:36;3.85;76.11
70336;SHT31;57756;47.408;18.940;2022-12-20T11:02:36;3.41;77.11
70336;SHT31;57756;47.408;18.940;2022-12-20T11:07:34;3.03;77.82
70336;SHT31;57756;47.408;18.940;2022-12-20T11:10:23;3.02;78.41
70336;SHT31;57756;47.408;18.940;2022-12-20T11:12:53;2.95;78.45
70336;SHT31;57756;47.408;18.940;2022-12-20T11:15:23;2.78;79.20
70336;SHT31;57756;47.408;18.940;2022-12-20T11:17:53;2.72;79.05
70336;SHT31;57756;47.408;18.940;2022-12-20T11:36:58;2.57;79.94
70336;SHT31;57756;47.408;18.940;2022-12-20T11:51:50;2.24;80.63
70336;SHT31;57756;47.408;18.940;2022-12-20T11:54:28;2.31;81.02
70336;SHT31;57756;47.408;18.940;2022-12-20T11:57:00;2.38;80.35
70336;SHT31;57756;47.408;18.940;2022-12-20T11:59:44;2.34;80.77
70336;SHT31;57756;47.408;18.940;2022-12-20T12:02:13;2.34;80.16
70336;SHT31;57756;47.408;18.940;2022-12-20T12:04:48;2.40;80.65
70336;SHT31;57756;47.408;18.940;2022-12-20T12:07:21;2.41;81.02
70336;SHT31;57756;47.408;18.940;2022-12-20T12:10:05;2.34;80.07
70336;SHT31;57756;47.408;18.940;2022-12-20T12:12:39;2.34;80.68
70336;SHT31;57756;47.408;18.940;2022-12-20T12:18:07;2.47;80.09
70336;SHT31;57756;47.408;18.940;2022-12-20T12:21:01;2.48;80.43
70336;SHT31;57756;47.408;18.940;2022-12-20T12:26:29;2.38;80.43
70336;SHT31;57756;47.408;18.940;2022-12-20T12:29:02;2.42;80.71
70336;SHT31;57756;47.408;18.940;2022-12-20T12:31:45;2.48;80.75
70336;SHT31;57756;47.408;18.940;2022-12-20T12:40:11;2.54;80.29
70336;SHT31;57756;47.408;18.940;2022-12-20T12:45:27;2.55;80.65
70336;SHT31;57756;47.408;18.940;2022-12-20T12:50:41;2.49;80.85
70336;SHT31;57756;47.408;18.940;2022-12-20T12:55:46;2.45;80.58
70336;SHT31;57756;47.408;18.940;2022-12-20T13:00:55;2.37;80.83
70336;SHT31;57756;47.408;18.940;2022-12-20T13:03:45;2.36;80.41
70336;SHT31;57756;47.408;18.940;2022-12-20T13:11:35;2.26;80.65
70336;SHT31;57756;47.408;18.940;2022-12-20T13:24:58;2.17;80.46
70336;SHT31;57756;47.408;18.940;2022-12-20T13:40:55;2.16;81.36
70336;SHT31;57756;47.408;18.940;2022-12-20T13:51:04;2.16;80.80
70336;SHT31;57756;47.408;18.940;2022-12-20T13:53:32;2.19;81.05
70336;SHT31;57756;47.408;18.940;2022-12-20T13:57:04;2.20;80.45
70336;SHT31;57756;47.408;18.940;2022-12-20T13:59:07;2.14;80.95
70336;SHT31;57756;47.408;18.940;2022-12-20T14:01:46;2.06;81.14
70336;SHT31;57756;47.408;18.940;2022-12-20T14:04:13;2.13;81.08
70336;SHT31;57756;47.408;18.940;2022-12-20T14:06:38;2.07;81.41
70336;SHT31;57756;47.408;18.940;2022-12-20T14:09:43;2.13;81.52
70336;SHT31;57756;47.408;18.940;2022-12-20T14:14:42;2.13;81.79
70336;SHT31;57756;47.408;18.940;2022-12-20T14:17:34;2.11;81.30
70336;SHT31;57756;47.408;18.940;2022-12-20T14:20:12;2.02;81.73
70336;SHT31;57756;47.408;18.940;2022-12-20T14:22:56;1.96;82.14
70336;SHT31;57756;47.408;18.940;2022-12-20T14:25:42;1.87;82.35
70336;SHT31;57756;47.408;18.940;2022-12-20T14:28:49;1.86;82.78
70336;SHT31;57756;47.408;18.940;2022-12-20T14:34:14;1.75;82.69
70336;SHT31;57756;47.408;18.940;2022-12-20T14:36:45;1.79;82.60
70336;SHT31;57756;47.408;18.940;2022-12-20T14:39:26;1.71;82.66
70336;SHT31;57756;47.408;18.940;2022-12-20T14:42:02;1.65;83.20
70336;SHT31;57756;47.408;18.940;2022-12-20T14:44:36;1.59;83.62
70336;SHT31;57756;47.408;18.940;2022-12-20T14:47:18;1.55;83.59
70336;SHT31;57756;47.408;18.940;2022-12-20T14:49:52;1.50;83.62
70336;SHT31;57756;47.408;18.940;2022-12-20T14:52:37;1.50;83.98
70336;SHT31;57756;47.408;18.940;2022-12-20T14:55:15;1.48;83.80
70336;SHT31;57756;47.408;18.940;2022-12-20T15:00:28;1.54;83.67
70336;SHT31;57756;47.408;18.940;2022-12-20T15:08:20;1.35;84.90
70336;SHT31;57756;47.408;18.940;2022-12-20T15:13:26;1.34;84.72
70336;SHT31;57756;47.408;18.940;2022-12-20T15:15:53;1.37;84.43
70336;SHT31;57756;47.408;18.940;2022-12-20T15:18:20;1.34;84.81
70336;SHT31;57756;47.408;18.940;2022-12-20T15:20:59;1.35;84.65
70336;SHT31;57756;47.408;18.940;2022-12-20T15:23:26;1.37;84.68
70336;SHT31;57756;47.408;18.940;2022-12-20T15:25:51;1.41;84.54
70336;SHT31;57756;47.408;18.940;2022-12-20T15:28:19;1.34;84.62
70336;SHT31;57756;47.408;18.940;2022-12-20T15:30:46;1.34;84.33
70336;SHT31;57756;47.408;18.940;2022-12-20T15:33:24;1.34;84.35
70336;SHT31;57756;47.408;18.940;2022-12-20T15:35:50;1.34;84.54
70336;SHT31;57756;47.408;18.940;2022-12-20T15:38:26;1.27;84.94
70336;SHT31;57756;47.408;18.940;2022-12-20T15:40:55;1.20;85.17
70336;SHT31;57756;47.408;18.940;2022-12-20T15:43:24;1.16;85.61
70336;SHT31;57756;47.408;18.940;2022-12-20T15:45:52;1.13;85.61
70336;SHT31;57756;47.408;18.940;2022-12-20T15:48:20;1.08;86.67
70336;SHT31;57756;47.408;18.940;2022-12-20T15:50:52;1.14;87.01
70336;SHT31;57756;47.408;18.940;2022-12-20T15:53:20;1.13;87.51
70336;SHT31;57756;47.408;18.940;2022-12-20T15:55:51;1.14;87.78
70336;SHT31;57756;47.408;18.940;2022-12-20T15:58:17;1.08;88.02
70336;SHT31;57756;47.408;18.940;2022-12-20T16:00:43;1.04;88.31
70336;SHT31;57756;47.408;18.940;2022-12-20T16:03:28;1.01;88.65
70336;SHT31;57756;47.408;18.940;2022-12-20T16:05:54;1.01;88.42
70336;SHT31;57756;47.408;18.940;2022-12-20T16:08:20;1.01;88.61
70336;SHT31;57756;47.408;18.940;2022-12-20T16:10:47;0.96;88.65
70336;SHT31;57756;47.408;18.940;2022-12-20T16:13:20;0.95;88.86
70336;SHT31;57756;47.408;18.940;2022-12-20T16:15:47;0.87;89.24
70336;SHT31;57756;47.408;18.940;2022-12-20T16:18:12;0.87;89.32
70336;SHT31;57756;47.408;18.940;2022-12-20T16:20:38;0.89;89.11
70336;SHT31;57756;47.408;18.940;2022-12-20T16:23:04;0.87;89.33
70336;SHT31;57756;47.408;18.940;2022-12-20T16:25:34;0.90;89.33
70336;SHT31;57756;47.408;18.940;2022-12-20T16:28:00;0.85;89.47
70336;SHT31;57756;47.408;18.940;2022-12-20T16:30:26;0.83;89.49
70336;SHT31;57756;47.408;18.940;2022-12-20T16:32:52;0.82;89.73
70336;SHT31;57756;47.408;18.940;2022-12-20T16:35:23;0.85;89.65
70336;SHT31;57756;47.408;18.940;2022-12-20T16:37:48;0.86;89.42
70336;SHT31;57756;47.408;18.940;2022-12-20T16:40:14;0.79;89.72
70336;SHT31;57756;47.408;18.940;2022-12-20T16:42:40;0.82;89.64
70336;SHT31;57756;47.408;18.940;2022-12-20T16:45:09;0.73;89.85
70336;SHT31;57756;47.408;18.940;2022-12-20T16:47:36;0.77;89.81
70336;SHT31;57756;47.408;18.940;2022-12-20T16:50:01;0.75;90.02
70336;SHT31;57756;47.408;18.940;2022-12-20T16:52:27;0.79;89.64
70336;SHT31;57756;47.408;18.940;2022-12-20T16:54:52;0.75;89.93
70336;SHT31;57756;47.408;18.940;2022-12-20T16:57:18;0.75;89.89
70336;SHT31;57756;47.408;18.940;2022-12-20T16:59:45;0.69;90.17
70336;SHT31;57756;47.408;18.940;2022-12-20T17:02:27;0.72;89.97
70336;SHT31;57756;47.408;18.940;2022-12-20T17:04:53;0.70;90.15
70336;SHT31;57756;47.408;18.940;2022-12-20T17:07:18;0.70;89.96
70336;SHT31;57756;47.408;18.940;2022-12-20T17:09:44;0.72;89.88
70336;SHT31;57756;47.408;18.940;2022-12-20T17:12:17;0.73;90.06
70336;SHT31;57756;47.408;18.940;2022-12-20T17:14:43;0.65;90.12
70336;SHT31;57756;47.408;18.940;2022-12-20T17:17:09;0.73;89.72
70336;SHT31;57756;47.408;18.940;2022-12-20T17:19:35;0.70;89.68
70336;SHT31;57756;47.408;18.940;2022-12-20T17:22:01;0.70;89.99
70336;SHT31;57756;47.408;18.940;2022-12-20T17:24:27;0.68;90.22
70336;SHT31;57756;47.408;18.940;2022-12-20T17:26:52;0.75;90.03
70336;SHT31;57756;47.408;18.940;2022-12-20T17:29:18;0.65;90.25
70336;SHT31;57756;47.408;18.940;2022-12-20T17:31:45;0.68;90.13
70336;SHT31;57756;47.408;18.940;2022-12-20T17:34:15;0.69;90.14
70336;SHT31;57756;47.408;18.940;2022-12-20T17:36:45;0.82;89.72
70336;SHT31;57756;47.408;18.940;2022-12-20T17:39:11;0.70;90.11
70336;SHT31;57756;47.408;18.940;2022-12-20T17:41:37;0.68;90.24
70336;SHT31;57756;47.408;18.940;2022-12-20T17:44:04;0.65;90.23
70336;SHT31;57756;47.408;18.940;2022-12-20T17:46:30;0.66;90.57
70336;SHT31;57756;47.408;18.940;2022-12-20T17:48:56;0.61;90.54
70336;SHT31;57756;47.408;18.940;2022-12-20T17:51:26;0.70;89.98